sensor_id;sensor_type;location;lat;lon;timestamp;P1;durP1;ratioP1;P2;durP2;ratioP2
16520;SDS011;8373;48.110;11.522;2022-09-28T04:02:17;6.57;;;2.40;;
16520;SDS011;8373;48.110;11.522;2022-09-28T04:04:44;6.83;;;3.00;;
16520;SDS011;8373;48.110;11.522;2022-09-28T04:07:11;5.90;;;3.00;;
16520;SDS011;8373;48.110;11.522;2022-09-28T04:09:38;6.37;;;3.10;;
16520;SDS011;8373;48.110;11.522;2022-09-28T04:12:05;6.90;;;3.00;;
16520;SDS011;8373;48.110;11.522;2022-09-28T04:14:32;9.53;;;3.10;;
16520;SDS011;8373;48.110;11.522;2022-09-28T04:16:59;6.20;;;3.33;;
16520;SDS011;8373;48.110;11.522;2022-09-28T04:19:27;7.30;;;3.40;;
16520;SDS011;8373;48.110;11.522;2022-09-28T04:21:54;6.73;;;3.57;;
16520;SDS011;8373;48.110;11.522;2022-09-28T04:24:21;5.83;;;3.47;;
16520;SDS011;8373;48.110;11.522;2022-09-28T04:26:48;8.57;;;3.30;;
16520;SDS011;8373;48.110;11.522;2022-09-28T04:29:15;5.90;;;3.30;;
16520;SDS011;8373;48.110;11.522;2022-09-28T04:31:42;6.57;;;3.20;;
16520;SDS011;8373;48.110;11.522;2022-09-28T04:34:12;7.47;;;3.57;;
16520;SDS011;8373;48.110;11.522;2022-09-28T04:36:42;5.10;;;2.57;;
16520;SDS011;8373;48.110;11.522;2022-09-28T04:39:10;6.27;;;3.43;;
16520;SDS011;8373;48.110;11.522;2022-09-28T04:41:37;6.10;;;2.80;;
16520;SDS011;8373;48.110;11.522;2022-09-28T04:44:04;6.07;;;3.30;;
16520;SDS011;8373;48.110;11.522;2022-09-28T04:46:31;5.67;;;2.93;;
16520;SDS011;8373;48.110;11.522;2022-09-28T04:48:58;8.77;;;3.10;;
16520;SDS011;8373;48.110;11.522;2022-09-28T04:51:25;6.57;;;3.33;;
16520;SDS011;8373;48.110;11.522;2022-09-28T04:53:53;7.50;;;3.00;;
16520;SDS011;8373;48.110;11.522;2022-09-28T04:56:20;6.27;;;3.00;;
16520;SDS011;8373;48.110;11.522;2022-09-28T04:58:47;6.33;;;3.17;;
16520;SDS011;8373;48.110;11.522;2022-09-28T05:01:15;7.73;;;3.37;;
16520;SDS011;8373;48.110;11.522;2022-09-28T05:03:44;6.07;;;3.20;;
16520;SDS011;8373;48.110;11.522;2022-09-28T05:06:12;6.57;;;3.47;;
16520;SDS011;8373;48.110;11.522;2022-09-28T05:08:40;7.87;;;3.50;;
16520;SDS011;8373;48.110;11.522;2022-09-28T05:11:09;9.53;;;3.30;;
16520;SDS011;8373;48.110;11.522;2022-09-28T05:13:40;5.60;;;3.10;;
16520;SDS011;8373;48.110;11.522;2022-09-28T05:16:09;6.27;;;3.00;;
16520;SDS011;8373;48.110;11.522;2022-09-28T05:18:37;10.13;;;3.10;;
16520;SDS011;8373;48.110;11.522;2022-09-28T05:21:07;7.60;;;3.67;;
16520;SDS011;8373;48.110;11.522;2022-09-28T05:23:35;7.37;;;3.50;;
16520;SDS011;8373;48.110;11.522;2022-09-28T05:26:02;9.17;;;4.10;;
16520;SDS011;8373;48.110;11.522;2022-09-28T05:28:31;9.23;;;3.53;;
16520;SDS011;8373;48.110;11.522;2022-09-28T05:30:58;8.37;;;4.37;;
16520;SDS011;8373;48.110;11.522;2022-09-28T05:33:26;8.27;;;3.80;;
16520;SDS011;8373;48.110;11.522;2022-09-28T05:35:53;10.10;;;3.40;;
16520;SDS011;8373;48.110;11.522;2022-09-28T05:38:20;7.03;;;3.50;;
16520;SDS011;8373;48.110;11.522;2022-09-28T05:40:47;9.00;;;3.63;;
16520;SDS011;8373;48.110;11.522;2022-09-28T05:43:14;7.40;;;4.33;;
16520;SDS011;8373;48.110;11.522;2022-09-28T05:45:42;11.50;;;5.53;;
16520;SDS011;8373;48.110;11.522;2022-09-28T05:48:09;10.00;;;4.13;;
16520;SDS011;8373;48.110;11.522;2022-09-28T05:50:36;6.40;;;3.47;;
16520;SDS011;8373;48.110;11.522;2022-09-28T05:53:04;12.83;;;3.83;;
16520;SDS011;8373;48.110;11.522;2022-09-28T05:55:33;8.07;;;3.87;;
16520;SDS011;8373;48.110;11.522;2022-09-28T05:58:01;6.60;;;3.30;;
16520;SDS011;8373;48.110;11.522;2022-09-28T06:00:31;8.90;;;4.40;;
16520;SDS011;8373;48.110;11.522;2022-09-28T06:03:00;13.53;;;4.60;;
16520;SDS011;8373;48.110;11.522;2022-09-28T06:05:28;12.80;;;4.60;;
16520;SDS011;8373;48.110;11.522;2022-09-28T06:07:56;9.53;;;3.30;;
16520;SDS011;8373;48.110;11.522;2022-09-28T06:10:25;10.30;;;4.10;;
16520;SDS011;8373;48.110;11.522;2022-09-28T06:12:53;5.60;;;3.10;;
16520;SDS011;8373;48.110;11.522;2022-09-28T06:15:22;6.90;;;3.53;;
16520;SDS011;8373;48.110;11.522;2022-09-28T06:17:54;6.67;;;3.00;;
16520;SDS011;8373;48.110;11.522;2022-09-28T06:20:23;6.20;;;3.00;;
16520;SDS011;8373;48.110;11.522;2022-09-28T06:22:51;5.77;;;2.60;;
16520;SDS011;8373;48.110;11.522;2022-09-28T06:25:18;6.20;;;3.00;;
16520;SDS011;8373;48.110;11.522;2022-09-28T06:27:52;6.40;;;2.90;;
16520;SDS011;8373;48.110;11.522;2022-09-28T06:30:20;7.93;;;2.90;;
16520;SDS011;8373;48.110;11.522;2022-09-28T06:32:47;5.90;;;3.07;;
16520;SDS011;8373;48.110;11.522;2022-09-28T06:35:17;9.70;;;3.53;;
16520;SDS011;8373;48.110;11.522;2022-09-28T06:37:46;6.80;;;2.70;;
16520;SDS011;8373;48.110;11.522;2022-09-28T06:40:13;7.33;;;3.10;;
16520;SDS011;8373;48.110;11.522;2022-09-28T06:42:41;6.63;;;2.93;;
16520;SDS011;8373;48.110;11.522;2022-09-28T06:45:08;9.80;;;3.90;;
16520;SDS011;8373;48.110;11.522;2022-09-28T06:47:37;10.27;;;3.87;;
16520;SDS011;8373;48.110;11.522;2022-09-28T06:50:06;11.10;;;3.90;;
16520;SDS011;8373;48.110;11.522;2022-09-28T06:52:36;6.73;;;3.30;;
16520;SDS011;8373;48.110;11.522;2022-09-28T06:55:05;8.03;;;3.40;;
16520;SDS011;8373;48.110;11.522;2022-09-28T06:57:32;10.93;;;4.03;;
16520;SDS011;8373;48.110;11.522;2022-09-28T06:59:59;9.80;;;3.60;;
16520;SDS011;8373;48.110;11.522;2022-09-28T07:02:26;9.10;;;2.93;;
16520;SDS011;8373;48.110;11.522;2022-09-28T07:04:55;9.73;;;3.10;;
16520;SDS011;8373;48.110;11.522;2022-09-28T07:07:23;7.80;;;2.93;;
16520;SDS011;8373;48.110;11.522;2022-09-28T07:09:52;7.70;;;2.90;;
16520;SDS011;8373;48.110;11.522;2022-09-28T07:12:21;17.30;;;3.30;;
16520;SDS011;8373;48.110;11.522;2022-09-28T07:14:49;9.50;;;3.10;;
16520;SDS011;8373;48.110;11.522;2022-09-28T07:17:20;5.53;;;2.60;;
16520;SDS011;8373;48.110;11.522;2022-09-28T07:19:47;7.07;;;3.10;;
16520;SDS011;8373;48.110;11.522;2022-09-28T07:22:17;7.97;;;2.87;;
16520;SDS011;8373;48.110;11.522;2022-09-28T07:24:44;11.83;;;3.33;;
16520;SDS011;8373;48.110;11.522;2022-09-28T07:27:12;15.20;;;3.00;;
16520;SDS011;8373;48.110;11.522;2022-09-28T07:29:40;5.97;;;2.83;;
16520;SDS011;8373;48.110;11.522;2022-09-28T07:32:07;6.97;;;2.93;;
16520;SDS011;8373;48.110;11.522;2022-09-28T07:34:34;6.67;;;2.77;;
16520;SDS011;8373;48.110;11.522;2022-09-28T07:37:05;6.67;;;2.87;;
16520;SDS011;8373;48.110;11.522;2022-09-28T07:39:35;7.17;;;2.70;;
16520;SDS011;8373;48.110;11.522;2022-09-28T07:42:23;7.93;;;2.40;;
16520;SDS011;8373;48.110;11.522;2022-09-28T07:44:51;5.80;;;2.50;;
16520;SDS011;8373;48.110;11.522;2022-09-28T07:47:18;5.97;;;3.00;;
16520;SDS011;8373;48.110;11.522;2022-09-28T07:49:50;9.70;;;2.50;;
16520;SDS011;8373;48.110;11.522;2022-09-28T07:52:19;9.53;;;3.03;;
16520;SDS011;8373;48.110;11.522;2022-09-28T07:54:48;7.03;;;2.67;;
16520;SDS011;8373;48.110;11.522;2022-09-28T07:57:16;6.33;;;2.80;;
16520;SDS011;8373;48.110;11.522;2022-09-28T07:59:44;6.50;;;2.80;;
16520;SDS011;8373;48.110;11.522;2022-09-28T08:02:13;5.10;;;2.53;;
16520;SDS011;8373;48.110;11.522;2022-09-28T08:04:40;9.30;;;3.10;;
16520;SDS011;8373;48.110;11.522;2022-09-28T08:07:07;5.47;;;2.80;;
16520;SDS011;8373;48.110;11.522;2022-09-28T08:09:34;5.77;;;2.93;;
16520;SDS011;8373;48.110;11.522;2022-09-28T08:12:02;6.40;;;3.10;;
16520;SDS011;8373;48.110;11.522;2022-09-28T08:14:29;6.70;;;3.00;;
16520;SDS011;8373;48.110;11.522;2022-09-28T08:16:58;7.57;;;2.90;;
16520;SDS011;8373;48.110;11.522;2022-09-28T08:19:26;8.20;;;2.93;;
16520;SDS011;8373;48.110;11.522;2022-09-28T08:22:15;8.50;;;2.30;;
16520;SDS011;8373;48.110;11.522;2022-09-28T08:24:42;9.50;;;2.93;;
16520;SDS011;8373;48.110;11.522;2022-09-28T08:27:10;6.60;;;3.00;;
16520;SDS011;8373;48.110;11.522;2022-09-28T08:29:37;6.17;;;2.63;;
16520;SDS011;8373;48.110;11.522;2022-09-28T08:32:04;8.33;;;3.00;;
16520;SDS011;8373;48.110;11.522;2022-09-28T08:34:34;7.07;;;2.53;;
16520;SDS011;8373;48.110;11.522;2022-09-28T08:37:01;7.50;;;2.50;;
16520;SDS011;8373;48.110;11.522;2022-09-28T08:39:28;10.43;;;3.17;;
16520;SDS011;8373;48.110;11.522;2022-09-28T08:41:59;5.40;;;2.30;;
16520;SDS011;8373;48.110;11.522;2022-09-28T08:44:37;6.47;;;2.70;;
16520;SDS011;8373;48.110;11.522;2022-09-28T08:47:09;7.53;;;3.07;;
16520;SDS011;8373;48.110;11.522;2022-09-28T08:50:04;6.27;;;2.70;;
16520;SDS011;8373;48.110;11.522;2022-09-28T08:52:38;7.77;;;2.70;;
16520;SDS011;8373;48.110;11.522;2022-09-28T08:55:07;8.13;;;3.03;;
16520;SDS011;8373;48.110;11.522;2022-09-28T08:57:39;5.10;;;2.30;;
16520;SDS011;8373;48.110;11.522;2022-09-28T09:00:14;7.57;;;2.80;;
16520;SDS011;8373;48.110;11.522;2022-09-28T09:02:45;6.37;;;3.03;;
16520;SDS011;8373;48.110;11.522;2022-09-28T09:05:14;5.57;;;3.40;;
16520;SDS011;8373;48.110;11.522;2022-09-28T09:07:49;5.20;;;2.50;;
16520;SDS011;8373;48.110;11.522;2022-09-28T09:13:30;11.27;;;3.17;;
16520;SDS011;8373;48.110;11.522;2022-09-28T09:16:22;5.80;;;2.60;;
16520;SDS011;8373;48.110;11.522;2022-09-28T09:18:58;10.33;;;2.67;;
16520;SDS011;8373;48.110;11.522;2022-09-28T09:21:37;7.23;;;2.60;;
16520;SDS011;8373;48.110;11.522;2022-09-28T09:24:11;7.03;;;2.90;;
16520;SDS011;8373;48.110;11.522;2022-09-28T09:26:56;8.60;;;3.57;;
16520;SDS011;8373;48.110;11.522;2022-09-28T09:29:32;8.50;;;2.77;;
16520;SDS011;8373;48.110;11.522;2022-09-28T09:32:16;5.80;;;2.70;;
16520;SDS011;8373;48.110;11.522;2022-09-28T09:38:12;8.80;;;3.23;;
16520;SDS011;8373;48.110;11.522;2022-09-28T09:40:53;7.97;;;2.83;;
16520;SDS011;8373;48.110;11.522;2022-09-28T09:43:47;8.47;;;2.83;;
16520;SDS011;8373;48.110;11.522;2022-09-28T09:46:32;7.17;;;2.90;;
16520;SDS011;8373;48.110;11.522;2022-09-28T09:49:04;5.73;;;2.93;;
16520;SDS011;8373;48.110;11.522;2022-09-28T09:51:36;8.50;;;3.10;;
16520;SDS011;8373;48.110;11.522;2022-09-28T09:54:11;5.90;;;3.10;;
16520;SDS011;8373;48.110;11.522;2022-09-28T09:56:47;8.13;;;3.20;;
16520;SDS011;8373;48.110;11.522;2022-09-28T09:59:19;7.53;;;3.00;;
16520;SDS011;8373;48.110;11.522;2022-09-28T10:01:49;10.30;;;4.50;;
16520;SDS011;8373;48.110;11.522;2022-09-28T10:04:19;8.73;;;3.93;;
16520;SDS011;8373;48.110;11.522;2022-09-28T10:06:48;10.93;;;3.97;;
16520;SDS011;8373;48.110;11.522;2022-09-28T10:09:21;8.43;;;3.70;;
16520;SDS011;8373;48.110;11.522;2022-09-28T10:11:51;10.13;;;3.67;;
16520;SDS011;8373;48.110;11.522;2022-09-28T10:14:19;6.37;;;3.57;;
16520;SDS011;8373;48.110;11.522;2022-09-28T10:16:48;6.97;;;3.03;;
16520;SDS011;8373;48.110;11.522;2022-09-28T10:19:17;6.53;;;2.90;;
16520;SDS011;8373;48.110;11.522;2022-09-28T10:21:49;6.90;;;3.37;;
16520;SDS011;8373;48.110;11.522;2022-09-28T10:24:26;7.07;;;3.20;;
16520;SDS011;8373;48.110;11.522;2022-09-28T10:27:02;11.23;;;4.47;;
16520;SDS011;8373;48.110;11.522;2022-09-28T10:29:35;9.87;;;3.53;;
16520;SDS011;8373;48.110;11.522;2022-09-28T10:32:20;6.30;;;3.20;;
16520;SDS011;8373;48.110;11.522;2022-09-28T10:34:49;6.67;;;2.90;;
16520;SDS011;8373;48.110;11.522;2022-09-28T10:37:19;9.77;;;3.50;;
16520;SDS011;8373;48.110;11.522;2022-09-28T10:39:50;6.53;;;3.20;;
16520;SDS011;8373;48.110;11.522;2022-09-28T10:42:19;6.90;;;3.17;;
16520;SDS011;8373;48.110;11.522;2022-09-28T10:44:55;8.93;;;3.23;;
16520;SDS011;8373;48.110;11.522;2022-09-28T10:47:27;10.90;;;3.33;;
16520;SDS011;8373;48.110;11.522;2022-09-28T10:49:56;5.80;;;2.87;;
16520;SDS011;8373;48.110;11.522;2022-09-28T10:52:35;13.80;;;3.10;;
16520;SDS011;8373;48.110;11.522;2022-09-28T10:57:52;7.17;;;3.13;;
16520;SDS011;8373;48.110;11.522;2022-09-28T11:00:30;6.10;;;3.20;;
16520;SDS011;8373;48.110;11.522;2022-09-28T11:02:59;7.03;;;2.90;;
16520;SDS011;8373;48.110;11.522;2022-09-28T11:05:26;8.37;;;3.13;;
16520;SDS011;8373;48.110;11.522;2022-09-28T11:07:54;6.23;;;3.30;;
16520;SDS011;8373;48.110;11.522;2022-09-28T11:10:25;8.00;;;3.90;;
16520;SDS011;8373;48.110;11.522;2022-09-28T11:12:54;10.27;;;4.30;;
16520;SDS011;8373;48.110;11.522;2022-09-28T11:15:23;6.50;;;3.00;;
16520;SDS011;8373;48.110;11.522;2022-09-28T11:17:53;6.30;;;3.13;;
16520;SDS011;8373;48.110;11.522;2022-09-28T11:20:30;9.73;;;4.17;;
16520;SDS011;8373;48.110;11.522;2022-09-28T11:23:00;7.47;;;3.60;;
16520;SDS011;8373;48.110;11.522;2022-09-28T11:25:55;6.47;;;2.80;;
16520;SDS011;8373;48.110;11.522;2022-09-28T11:28:27;6.83;;;3.30;;
16520;SDS011;8373;48.110;11.522;2022-09-28T11:30:57;9.10;;;3.40;;
16520;SDS011;8373;48.110;11.522;2022-09-28T11:33:27;7.80;;;3.20;;
16520;SDS011;8373;48.110;11.522;2022-09-28T11:35:59;12.57;;;3.70;;
16520;SDS011;8373;48.110;11.522;2022-09-28T11:38:44;10.93;;;5.43;;
16520;SDS011;8373;48.110;11.522;2022-09-28T11:44:20;8.47;;;3.80;;
16520;SDS011;8373;48.110;11.522;2022-09-28T11:47:08;7.07;;;3.30;;
16520;SDS011;8373;48.110;11.522;2022-09-28T11:50:00;6.83;;;3.60;;
16520;SDS011;8373;48.110;11.522;2022-09-28T11:52:32;6.50;;;3.50;;
16520;SDS011;8373;48.110;11.522;2022-09-28T11:55:05;12.10;;;3.50;;
16520;SDS011;8373;48.110;11.522;2022-09-28T11:57:42;8.70;;;4.20;;
16520;SDS011;8373;48.110;11.522;2022-09-28T12:00:14;12.60;;;4.50;;
16520;SDS011;8373;48.110;11.522;2022-09-28T12:02:45;12.43;;;4.70;;
16520;SDS011;8373;48.110;11.522;2022-09-28T12:05:19;15.80;;;6.00;;
16520;SDS011;8373;48.110;11.522;2022-09-28T12:07:49;11.63;;;4.13;;
16520;SDS011;8373;48.110;11.522;2022-09-28T12:10:22;8.63;;;3.43;;
16520;SDS011;8373;48.110;11.522;2022-09-28T12:12:59;11.90;;;3.63;;
16520;SDS011;8373;48.110;11.522;2022-09-28T12:15:29;8.53;;;3.40;;
16520;SDS011;8373;48.110;11.522;2022-09-28T12:18:05;6.67;;;3.13;;
16520;SDS011;8373;48.110;11.522;2022-09-28T12:20:37;15.90;;;3.50;;
16520;SDS011;8373;48.110;11.522;2022-09-28T12:23:10;6.53;;;2.90;;
16520;SDS011;8373;48.110;11.522;2022-09-28T12:25:41;7.60;;;3.03;;
16520;SDS011;8373;48.110;11.522;2022-09-28T12:28:15;7.70;;;3.20;;
16520;SDS011;8373;48.110;11.522;2022-09-28T12:30:47;6.50;;;3.40;;
16520;SDS011;8373;48.110;11.522;2022-09-28T12:33:15;7.10;;;2.90;;
16520;SDS011;8373;48.110;11.522;2022-09-28T12:35:46;7.60;;;3.37;;
16520;SDS011;8373;48.110;11.522;2022-09-28T12:38:31;10.93;;;3.03;;
16520;SDS011;8373;48.110;11.522;2022-09-28T12:41:09;6.97;;;3.00;;
16520;SDS011;8373;48.110;11.522;2022-09-28T12:43:52;6.23;;;2.60;;
16520;SDS011;8373;48.110;11.522;2022-09-28T12:49:20;7.77;;;3.17;;
16520;SDS011;8373;48.110;11.522;2022-09-28T12:51:54;7.90;;;3.50;;
16520;SDS011;8373;48.110;11.522;2022-09-28T12:57:29;8.57;;;3.90;;
16520;SDS011;8373;48.110;11.522;2022-09-28T13:00:05;8.27;;;3.97;;
16520;SDS011;8373;48.110;11.522;2022-09-28T13:02:42;8.60;;;3.70;;
16520;SDS011;8373;48.110;11.522;2022-09-28T13:05:36;10.13;;;3.90;;
16520;SDS011;8373;48.110;11.522;2022-09-28T13:08:35;8.90;;;3.70;;
16520;SDS011;8373;48.110;11.522;2022-09-28T13:11:14;8.23;;;3.77;;
16520;SDS011;8373;48.110;11.522;2022-09-28T13:13:50;9.77;;;4.10;;
16520;SDS011;8373;48.110;11.522;2022-09-28T13:16:30;11.53;;;4.30;;
16520;SDS011;8373;48.110;11.522;2022-09-28T13:19:06;6.83;;;3.67;;
16520;SDS011;8373;48.110;11.522;2022-09-28T13:21:42;8.83;;;3.67;;
16520;SDS011;8373;48.110;11.522;2022-09-28T13:24:17;10.03;;;3.83;;
16520;SDS011;8373;48.110;11.522;2022-09-28T13:26:50;14.00;;;4.37;;
16520;SDS011;8373;48.110;11.522;2022-09-28T13:29:21;12.90;;;4.10;;
16520;SDS011;8373;48.110;11.522;2022-09-28T13:31:52;9.30;;;3.60;;
16520;SDS011;8373;48.110;11.522;2022-09-28T13:34:23;10.40;;;3.50;;
16520;SDS011;8373;48.110;11.522;2022-09-28T13:39:50;9.50;;;3.87;;
16520;SDS011;8373;48.110;11.522;2022-09-28T13:42:22;8.53;;;3.63;;
16520;SDS011;8373;48.110;11.522;2022-09-28T13:45:13;10.40;;;4.10;;
16520;SDS011;8373;48.110;11.522;2022-09-28T13:48:03;14.60;;;4.10;;
16520;SDS011;8373;48.110;11.522;2022-09-28T13:53:35;8.80;;;3.40;;
16520;SDS011;8373;48.110;11.522;2022-09-28T13:56:19;17.67;;;4.47;;
16520;SDS011;8373;48.110;11.522;2022-09-28T13:58:53;10.77;;;3.90;;
16520;SDS011;8373;48.110;11.522;2022-09-28T14:01:25;11.77;;;4.37;;
16520;SDS011;8373;48.110;11.522;2022-09-28T14:04:10;9.67;;;4.40;;
16520;SDS011;8373;48.110;11.522;2022-09-28T14:06:41;6.57;;;3.10;;
16520;SDS011;8373;48.110;11.522;2022-09-28T14:14:55;9.83;;;4.10;;
16520;SDS011;8373;48.110;11.522;2022-09-28T14:17:43;11.10;;;3.73;;
16520;SDS011;8373;48.110;11.522;2022-09-28T14:20:20;11.43;;;4.47;;
16520;SDS011;8373;48.110;11.522;2022-09-28T14:22:56;12.37;;;4.23;;
16520;SDS011;8373;48.110;11.522;2022-09-28T14:25:37;12.23;;;4.23;;
16520;SDS011;8373;48.110;11.522;2022-09-28T14:28:16;10.20;;;3.93;;
16520;SDS011;8373;48.110;11.522;2022-09-28T14:30:53;16.43;;;5.07;;
16520;SDS011;8373;48.110;11.522;2022-09-28T14:33:23;16.20;;;5.87;;
16520;SDS011;8373;48.110;11.522;2022-09-28T14:35:55;10.90;;;5.00;;
16520;SDS011;8373;48.110;11.522;2022-09-28T14:38:27;13.67;;;5.30;;
16520;SDS011;8373;48.110;11.522;2022-09-28T14:41:24;11.47;;;5.80;;
16520;SDS011;8373;48.110;11.522;2022-09-28T14:43:56;10.20;;;4.53;;
16520;SDS011;8373;48.110;11.522;2022-09-28T14:46:28;9.03;;;4.53;;
16520;SDS011;8373;48.110;11.522;2022-09-28T14:48:59;13.63;;;5.10;;
16520;SDS011;8373;48.110;11.522;2022-09-28T14:54:39;12.77;;;4.70;;
16520;SDS011;8373;48.110;11.522;2022-09-28T14:59:56;10.63;;;5.20;;
16520;SDS011;8373;48.110;11.522;2022-09-28T15:02:25;8.97;;;4.20;;
16520;SDS011;8373;48.110;11.522;2022-09-28T15:04:58;12.63;;;5.47;;
16520;SDS011;8373;48.110;11.522;2022-09-28T15:07:41;15.10;;;5.37;;
16520;SDS011;8373;48.110;11.522;2022-09-28T15:10:20;15.00;;;5.03;;
16520;SDS011;8373;48.110;11.522;2022-09-28T15:12:49;10.80;;;5.33;;
16520;SDS011;8373;48.110;11.522;2022-09-28T15:15:22;13.70;;;6.90;;
16520;SDS011;8373;48.110;11.522;2022-09-28T15:17:54;15.93;;;6.00;;
16520;SDS011;8373;48.110;11.522;2022-09-28T15:20:32;11.03;;;4.97;;
16520;SDS011;8373;48.110;11.522;2022-09-28T15:23:21;13.97;;;5.97;;
16520;SDS011;8373;48.110;11.522;2022-09-28T15:25:51;14.10;;;6.57;;
16520;SDS011;8373;48.110;11.522;2022-09-28T15:28:19;14.40;;;7.53;;
16520;SDS011;8373;48.110;11.522;2022-09-28T15:30:48;15.03;;;7.03;;
16520;SDS011;8373;48.110;11.522;2022-09-28T15:33:22;16.37;;;6.77;;
16520;SDS011;8373;48.110;11.522;2022-09-28T15:36:08;15.10;;;5.97;;
16520;SDS011;8373;48.110;11.522;2022-09-28T15:38:42;18.20;;;5.40;;
16520;SDS011;8373;48.110;11.522;2022-09-28T15:41:13;11.70;;;5.13;;
16520;SDS011;8373;48.110;11.522;2022-09-28T15:43:40;13.90;;;5.47;;
16520;SDS011;8373;48.110;11.522;2022-09-28T15:46:11;13.70;;;6.30;;
16520;SDS011;8373;48.110;11.522;2022-09-28T15:48:44;11.97;;;5.87;;
16520;SDS011;8373;48.110;11.522;2022-09-28T15:51:16;21.90;;;7.37;;
16520;SDS011;8373;48.110;11.522;2022-09-28T15:53:46;9.83;;;5.60;;
16520;SDS011;8373;48.110;11.522;2022-09-28T15:56:19;9.23;;;4.90;;
16520;SDS011;8373;48.110;11.522;2022-09-28T15:59:06;16.30;;;5.70;;
16520;SDS011;8373;48.110;11.522;2022-09-28T16:01:34;20.10;;;5.90;;
16520;SDS011;8373;48.110;11.522;2022-09-28T16:07:12;15.10;;;6.10;;
16520;SDS011;8373;48.110;11.522;2022-09-28T16:09:57;17.43;;;5.73;;
16520;SDS011;8373;48.110;11.522;2022-09-28T16:12:28;9.23;;;4.33;;
16520;SDS011;8373;48.110;11.522;2022-09-28T16:15:06;17.60;;;5.70;;
16520;SDS011;8373;48.110;11.522;2022-09-28T16:17:40;11.60;;;5.30;;
16520;SDS011;8373;48.110;11.522;2022-09-28T16:20:17;13.10;;;4.73;;
16520;SDS011;8373;48.110;11.522;2022-09-28T16:22:48;13.50;;;5.70;;
16520;SDS011;8373;48.110;11.522;2022-09-28T16:25:16;18.63;;;5.60;;
16520;SDS011;8373;48.110;11.522;2022-09-28T16:27:48;20.40;;;5.90;;
16520;SDS011;8373;48.110;11.522;2022-09-28T16:30:17;13.57;;;5.70;;
16520;SDS011;8373;48.110;11.522;2022-09-28T16:32:51;15.30;;;5.50;;
16520;SDS011;8373;48.110;11.522;2022-09-28T16:35:25;10.70;;;5.33;;
16520;SDS011;8373;48.110;11.522;2022-09-28T16:37:55;12.00;;;5.30;;
16520;SDS011;8373;48.110;11.522;2022-09-28T16:40:37;13.70;;;6.20;;
16520;SDS011;8373;48.110;11.522;2022-09-28T16:43:09;21.37;;;7.93;;
16520;SDS011;8373;48.110;11.522;2022-09-28T16:45:44;18.90;;;6.20;;
16520;SDS011;8373;48.110;11.522;2022-09-28T16:48:12;24.43;;;8.30;;
16520;SDS011;8373;48.110;11.522;2022-09-28T16:50:43;23.43;;;7.80;;
16520;SDS011;8373;48.110;11.522;2022-09-28T16:53:11;22.40;;;9.20;;
16520;SDS011;8373;48.110;11.522;2022-09-28T16:55:57;30.03;;;7.70;;
16520;SDS011;8373;48.110;11.522;2022-09-28T16:58:27;22.23;;;7.87;;
16520;SDS011;8373;48.110;11.522;2022-09-28T17:00:55;20.70;;;7.40;;
16520;SDS011;8373;48.110;11.522;2022-09-28T17:03:23;16.60;;;7.53;;
16520;SDS011;8373;48.110;11.522;2022-09-28T17:05:51;20.20;;;8.27;;
16520;SDS011;8373;48.110;11.522;2022-09-28T17:08:19;27.73;;;9.63;;
16520;SDS011;8373;48.110;11.522;2022-09-28T17:10:49;24.03;;;8.63;;
16520;SDS011;8373;48.110;11.522;2022-09-28T17:13:18;24.03;;;9.63;;
16520;SDS011;8373;48.110;11.522;2022-09-28T17:15:46;24.47;;;8.53;;
16520;SDS011;8373;48.110;11.522;2022-09-28T17:18:14;17.00;;;6.80;;
16520;SDS011;8373;48.110;11.522;2022-09-28T17:20:42;16.73;;;7.00;;
16520;SDS011;8373;48.110;11.522;2022-09-28T17:23:12;17.83;;;7.80;;
16520;SDS011;8373;48.110;11.522;2022-09-28T17:25:39;24.87;;;9.30;;
16520;SDS011;8373;48.110;11.522;2022-09-28T17:28:08;39.50;;;11.70;;
16520;SDS011;8373;48.110;11.522;2022-09-28T17:30:42;25.93;;;8.87;;
16520;SDS011;8373;48.110;11.522;2022-09-28T17:33:10;13.40;;;6.03;;
16520;SDS011;8373;48.110;11.522;2022-09-28T17:35:38;21.47;;;6.80;;
16520;SDS011;8373;48.110;11.522;2022-09-28T17:38:05;19.73;;;6.37;;
16520;SDS011;8373;48.110;11.522;2022-09-28T17:40:32;22.57;;;7.10;;
16520;SDS011;8373;48.110;11.522;2022-09-28T17:42:59;21.30;;;6.97;;
16520;SDS011;8373;48.110;11.522;2022-09-28T17:45:29;16.57;;;7.10;;
16520;SDS011;8373;48.110;11.522;2022-09-28T17:48:00;16.87;;;7.87;;
16520;SDS011;8373;48.110;11.522;2022-09-28T17:50:29;16.37;;;6.80;;
16520;SDS011;8373;48.110;11.522;2022-09-28T17:52:58;19.67;;;8.17;;
16520;SDS011;8373;48.110;11.522;2022-09-28T17:55:28;19.50;;;6.87;;
16520;SDS011;8373;48.110;11.522;2022-09-28T17:57:56;19.83;;;6.70;;
16520;SDS011;8373;48.110;11.522;2022-09-28T18:00:25;17.17;;;6.10;;
16520;SDS011;8373;48.110;11.522;2022-09-28T18:02:52;16.50;;;6.63;;
16520;SDS011;8373;48.110;11.522;2022-09-28T18:05:20;14.57;;;7.07;;
16520;SDS011;8373;48.110;11.522;2022-09-28T18:07:50;13.90;;;5.80;;
16520;SDS011;8373;48.110;11.522;2022-09-28T18:10:18;13.50;;;6.60;;
16520;SDS011;8373;48.110;11.522;2022-09-28T18:12:46;13.80;;;5.07;;
16520;SDS011;8373;48.110;11.522;2022-09-28T18:15:14;8.57;;;4.47;;
16520;SDS011;8373;48.110;11.522;2022-09-28T18:17:42;16.40;;;4.80;;
16520;SDS011;8373;48.110;11.522;2022-09-28T18:20:09;18.47;;;6.37;;
16520;SDS011;8373;48.110;11.522;2022-09-28T18:22:37;14.33;;;6.80;;
16520;SDS011;8373;48.110;11.522;2022-09-28T18:25:06;13.80;;;5.63;;
16520;SDS011;8373;48.110;11.522;2022-09-28T18:27:35;17.17;;;5.73;;
16520;SDS011;8373;48.110;11.522;2022-09-28T18:30:02;11.67;;;5.67;;
16520;SDS011;8373;48.110;11.522;2022-09-28T18:32:32;12.47;;;5.83;;
16520;SDS011;8373;48.110;11.522;2022-09-28T18:35:00;14.67;;;6.30;;
16520;SDS011;8373;48.110;11.522;2022-09-28T18:37:28;15.00;;;5.23;;
16520;SDS011;8373;48.110;11.522;2022-09-28T18:39:55;11.73;;;5.30;;
16520;SDS011;8373;48.110;11.522;2022-09-28T18:42:23;11.13;;;4.93;;
16520;SDS011;8373;48.110;11.522;2022-09-28T18:44:50;13.77;;;5.93;;
16520;SDS011;8373;48.110;11.522;2022-09-28T18:47:17;15.03;;;5.60;;
16520;SDS011;8373;48.110;11.522;2022-09-28T18:49:44;14.10;;;4.77;;
16520;SDS011;8373;48.110;11.522;2022-09-28T18:52:11;9.57;;;4.20;;
16520;SDS011;8373;48.110;11.522;2022-09-28T18:54:38;8.00;;;3.97;;
16520;SDS011;8373;48.110;11.522;2022-09-28T18:57:05;19.80;;;4.60;;
16520;SDS011;8373;48.110;11.522;2022-09-28T18:59:34;12.67;;;4.00;;
16520;SDS011;8373;48.110;11.522;2022-09-28T19:02:01;10.07;;;3.80;;
16520;SDS011;8373;48.110;11.522;2022-09-28T19:04:28;9.87;;;4.00;;
16520;SDS011;8373;48.110;11.522;2022-09-28T19:06:55;7.40;;;3.90;;
16520;SDS011;8373;48.110;11.522;2022-09-28T19:09:22;11.50;;;4.20;;
16520;SDS011;8373;48.110;11.522;2022-09-28T19:11:50;9.87;;;4.20;;
16520;SDS011;8373;48.110;11.522;2022-09-28T19:14:17;16.73;;;5.77;;
16520;SDS011;8373;48.110;11.522;2022-09-28T19:16:46;22.10;;;5.53;;
16520;SDS011;8373;48.110;11.522;2022-09-28T19:19:14;21.47;;;7.77;;
16520;SDS011;8373;48.110;11.522;2022-09-28T19:21:42;17.50;;;6.17;;
16520;SDS011;8373;48.110;11.522;2022-09-28T19:24:11;18.47;;;5.83;;
16520;SDS011;8373;48.110;11.522;2022-09-28T19:26:38;19.13;;;7.10;;
16520;SDS011;8373;48.110;11.522;2022-09-28T19:29:06;16.37;;;5.80;;
16520;SDS011;8373;48.110;11.522;2022-09-28T19:31:33;9.13;;;4.13;;
16520;SDS011;8373;48.110;11.522;2022-09-28T19:34:01;7.37;;;3.63;;
16520;SDS011;8373;48.110;11.522;2022-09-28T19:36:28;11.63;;;4.10;;
16520;SDS011;8373;48.110;11.522;2022-09-28T19:38:56;10.10;;;4.20;;
16520;SDS011;8373;48.110;11.522;2022-09-28T19:41:27;16.43;;;5.50;;
16520;SDS011;8373;48.110;11.522;2022-09-28T19:44:16;8.30;;;3.90;;
16520;SDS011;8373;48.110;11.522;2022-09-28T19:46:48;13.30;;;3.87;;